createdAt,value
2022-09-04T00:00:25.200Z,14.40
2022-09-04T00:03:01.695Z,14.90
2022-09-04T00:05:36.351Z,14.20
2022-09-04T00:08:02.942Z,14.10
2022-09-04T00:10:48.347Z,14.10
2022-09-04T00:13:18.085Z,14.00
2022-09-04T00:15:48.142Z,14.00
2022-09-04T00:18:17.899Z,15.30
2022-09-04T00:20:54.168Z,16.20
2022-09-04T00:23:25.298Z,13.80
2022-09-04T00:26:03.034Z,13.70
2022-09-04T00:28:35.411Z,13.70
2022-09-04T00:31:06.361Z,13.70
2022-09-04T00:33:39.051Z,13.80
2022-09-04T00:36:06.313Z,14.90
2022-09-04T00:38:40.303Z,13.80
2022-09-04T00:41:31.026Z,13.80
2022-09-04T00:44:13.406Z,13.80
2022-09-04T00:46:58.672Z,13.80
2022-09-04T00:49:50.855Z,13.80
2022-09-04T00:52:36.594Z,13.80
2022-09-04T00:55:22.076Z,13.90
2022-09-04T00:57:58.254Z,13.90
2022-09-04T01:00:27.630Z,13.90
2022-09-04T01:03:09.503Z,14.10
2022-09-04T01:05:56.565Z,13.90
2022-09-04T01:08:42.267Z,13.90
2022-09-04T01:11:14.438Z,13.90
2022-09-04T01:13:50.899Z,13.90
2022-09-04T01:16:27.382Z,13.80
2022-09-04T01:19:08.728Z,13.80
2022-09-04T01:21:35.392Z,13.80
2022-09-04T01:24:20.894Z,14.50
2022-09-04T01:26:53.521Z,13.70
2022-09-04T01:29:31.361Z,14.00
2022-09-04T01:32:16.900Z,13.60
2022-09-04T01:34:59.633Z,13.70
2022-09-04T01:37:52.091Z,13.70
2022-09-04T01:40:23.661Z,13.60
2022-09-04T01:43:08.172Z,13.70
2022-09-04T01:45:46.492Z,13.60
2022-09-04T01:48:16.351Z,13.70
2022-09-04T01:50:46.255Z,13.70
2022-09-04T01:53:15.845Z,16.50
2022-09-04T01:55:42.596Z,15.10
2022-09-04T01:58:09.258Z,15.60
2022-09-04T02:00:57.643Z,15.40
2022-09-04T02:03:46.464Z,13.50
2022-09-04T02:06:29.485Z,13.50
2022-09-04T02:09:09.869Z,13.60
2022-09-04T02:11:36.640Z,13.60
2022-09-04T02:14:21.129Z,14.20
2022-09-04T02:17:08.859Z,13.50
2022-09-04T02:19:46.896Z,13.40
2022-09-04T02:22:19.689Z,13.30
2022-09-04T02:24:58.605Z,13.10
2022-09-04T02:27:32.639Z,13.10
2022-09-04T02:30:02.300Z,13.00
2022-09-04T02:32:39.060Z,13.00
2022-09-04T02:35:29.640Z,12.90
2022-09-04T02:38:02.956Z,12.80
2022-09-04T02:40:29.654Z,12.80
2022-09-04T02:42:56.416Z,13.70
2022-09-04T02:45:42.046Z,12.80
2022-09-04T02:48:13.510Z,12.80
2022-09-04T02:50:58.921Z,12.80
2022-09-04T02:53:44.342Z,12.80
2022-09-04T02:56:11.046Z,12.80
2022-09-04T02:58:57.812Z,14.20
2022-09-04T03:01:49.783Z,12.80
2022-09-04T03:04:28.002Z,12.80
2022-09-04T03:07:14.003Z,12.80
2022-09-04T03:09:46.693Z,12.70
2022-09-04T03:12:26.639Z,12.70
2022-09-04T03:15:03.076Z,12.70
2022-09-04T03:17:35.823Z,12.70
2022-09-04T03:20:22.090Z,12.80
2022-09-04T03:22:52.112Z,12.90
2022-09-04T03:25:24.892Z,13.10
2022-09-04T03:27:51.603Z,13.10
2022-09-04T03:30:18.515Z,15.20
2022-09-04T03:32:52.179Z,12.90
2022-09-04T03:35:37.791Z,12.80
2022-09-04T03:38:11.245Z,12.70
2022-09-04T03:40:40.065Z,14.50
2022-09-04T03:43:14.204Z,15.20
2022-09-04T03:46:04.022Z,14.20
2022-09-04T03:48:47.965Z,12.50
2022-09-04T03:51:25.648Z,15.40
2022-09-04T03:54:07.548Z,12.40
2022-09-04T03:56:44.444Z,12.40
2022-09-04T03:59:16.545Z,12.40
2022-09-04T04:02:07.394Z,13.70
2022-09-04T04:04:54.333Z,12.50
2022-09-04T04:07:24.244Z,15.60
2022-09-04T04:09:50.897Z,12.50
2022-09-04T04:12:27.517Z,14.00
2022-09-04T04:15:03.526Z,12.60
2022-09-04T04:17:31.508Z,12.60
2022-09-04T04:20:04.032Z,12.60
2022-09-04T04:22:47.020Z,15.20
2022-09-04T04:25:16.626Z,12.70
2022-09-04T04:27:53.106Z,12.70
2022-09-04T04:30:20.795Z,12.70
2022-09-04T04:32:57.213Z,15.50
2022-09-04T04:35:39.156Z,12.70
2022-09-04T04:38:05.767Z,12.70
2022-09-04T04:40:58.078Z,14.60
2022-09-04T04:43:31.025Z,12.80
2022-09-04T04:46:16.388Z,15.20
2022-09-04T04:49:04.931Z,12.80
2022-09-04T04:51:40.748Z,12.80
2022-09-04T04:54:13.174Z,12.80
2022-09-04T04:56:52.091Z,12.70
2022-09-04T04:59:39.394Z,12.70
2022-09-04T05:02:22.898Z,12.70
2022-09-04T05:04:58.131Z,12.70
2022-09-04T05:07:28.239Z,12.80
2022-09-04T05:10:00.197Z,12.80
2022-09-04T05:12:45.909Z,12.80
2022-09-04T05:15:18.353Z,12.70
2022-09-04T05:18:08.356Z,14.70
2022-09-04T05:20:34.989Z,12.90
2022-09-04T05:23:22.150Z,12.90
2022-09-04T05:26:11.971Z,13.00
2022-09-04T05:28:41.721Z,12.90
2022-09-04T05:31:11.619Z,13.00
2022-09-04T05:34:01.605Z,13.10
2022-09-04T05:36:40.590Z,13.10
2022-09-04T05:39:13.798Z,13.10
2022-09-04T05:41:49.677Z,15.90
2022-09-04T05:44:36.728Z,13.30
2022-09-04T05:47:30.558Z,14.30
2022-09-04T05:50:07.160Z,13.50
2022-09-04T05:52:38.916Z,13.60
2022-09-04T05:55:06.099Z,16.90
2022-09-04T05:57:44.789Z,13.80
2022-09-04T06:00:11.612Z,13.90
2022-09-04T06:02:57.078Z,14.00
2022-09-04T06:05:38.157Z,14.10
2022-09-04T06:08:34.213Z,14.20
2022-09-04T06:11:19.244Z,14.30
2022-09-04T06:13:58.485Z,14.40
2022-09-04T06:16:37.522Z,14.40
2022-09-04T06:19:24.380Z,14.40
2022-09-04T06:22:19.641Z,14.50
2022-09-04T06:24:54.349Z,14.50
2022-09-04T06:27:30.511Z,15.80
2022-09-04T06:30:01.176Z,14.50
2022-09-04T06:32:40.388Z,16.50
2022-09-04T06:35:10.238Z,14.50
2022-09-04T06:37:40.043Z,14.50
2022-09-04T06:40:06.758Z,14.60
2022-09-04T06:42:33.405Z,15.50
2022-09-04T06:45:19.173Z,16.70
2022-09-04T06:48:04.709Z,14.80
2022-09-04T06:50:35.304Z,14.90
2022-09-04T06:53:24.065Z,15.40
2022-09-04T06:56:08.123Z,15.10
2022-09-04T06:58:37.861Z,15.20
2022-09-04T07:01:08.851Z,15.20
2022-09-04T07:03:35.617Z,15.30
2022-09-04T07:06:11.298Z,17.50
2022-09-04T07:08:57.656Z,15.50
2022-09-04T07:11:32.415Z,15.60
2022-09-04T07:14:07.988Z,15.80
2022-09-04T07:16:37.715Z,15.70
2022-09-04T07:19:32.952Z,18.10
2022-09-04T07:22:05.444Z,15.90
2022-09-04T07:24:41.458Z,16.00
2022-09-04T07:27:26.994Z,16.10
2022-09-04T07:29:59.971Z,16.20
2022-09-04T07:32:34.417Z,16.20
2022-09-04T07:35:10.191Z,16.30
2022-09-04T07:37:43.927Z,16.40
2022-09-04T07:40:19.759Z,16.80
2022-09-04T07:42:59.525Z,16.50
2022-09-04T07:45:29.447Z,16.60
2022-09-04T07:48:05.939Z,16.80
2022-09-04T07:50:35.577Z,16.80
2022-09-04T07:53:21.075Z,17.10
2022-09-04T07:55:50.817Z,17.00
2022-09-04T07:58:41.263Z,17.20
2022-09-04T08:01:26.690Z,17.10
2022-09-04T08:04:03.254Z,17.20
2022-09-04T08:06:38.774Z,17.30
2022-09-04T08:09:05.606Z,17.40
2022-09-04T08:11:38.587Z,17.40
2022-09-04T08:14:24.449Z,17.50
2022-09-04T08:16:57.590Z,17.60
2022-09-04T08:19:43.274Z,19.00
2022-09-04T08:22:17.273Z,17.70
2022-09-04T08:24:53.662Z,17.80
2022-09-04T08:27:34.667Z,17.90
2022-09-04T08:30:08.499Z,17.90
2022-09-04T08:32:49.813Z,18.00
2022-09-04T08:35:22.825Z,18.10
2022-09-04T08:37:52.522Z,18.20
2022-09-04T08:40:33.101Z,18.20
2022-09-04T08:43:12.079Z,19.80
2022-09-04T08:46:06.049Z,18.40
2022-09-04T08:48:51.756Z,18.50
2022-09-04T08:51:29.452Z,18.50
2022-09-04T08:54:02.549Z,18.60
2022-09-04T08:56:35.280Z,18.70
2022-09-04T08:59:20.774Z,18.80
2022-09-04T09:02:23.653Z,18.90
2022-09-04T09:05:10.147Z,19.00
2022-09-04T09:08:06.646Z,19.10
2022-09-04T09:10:37.578Z,19.10
2022-09-04T09:13:17.565Z,19.40
2022-09-04T09:15:50.363Z,20.60
2022-09-04T09:18:40.476Z,19.50
2022-09-04T09:21:14.740Z,19.50
2022-09-04T09:23:53.594Z,19.60
2022-09-04T09:26:20.272Z,19.80
2022-09-04T09:28:54.751Z,20.10
2022-09-04T09:31:36.707Z,20.20
2022-09-04T09:34:19.002Z,20.30
2022-09-04T09:37:02.683Z,20.50
2022-09-04T09:39:50.081Z,20.70
2022-09-04T09:42:31.599Z,20.80
2022-09-04T09:45:17.088Z,21.00
2022-09-04T09:47:46.940Z,21.10
2022-09-04T09:50:16.762Z,21.20
2022-09-04T09:53:11.004Z,21.20
2022-09-04T09:56:02.360Z,21.30
2022-09-04T09:58:44.534Z,21.40
2022-09-04T10:01:24.277Z,21.50
2022-09-04T10:03:57.338Z,21.60
2022-09-04T10:06:40.688Z,21.70
2022-09-04T10:09:09.528Z,21.70
2022-09-04T10:11:48.747Z,23.00
2022-09-04T10:14:21.078Z,21.90
2022-09-04T10:17:00.711Z,22.00
2022-09-04T10:19:43.339Z,22.10
2022-09-04T10:22:13.017Z,22.00
2022-09-04T10:24:54.833Z,22.00
2022-09-04T10:27:31.279Z,21.90
2022-09-04T10:30:08.388Z,21.90
2022-09-04T10:32:55.102Z,21.90
2022-09-04T10:35:25.474Z,21.80
2022-09-04T10:37:55.288Z,21.90
2022-09-04T10:40:43.333Z,21.80
2022-09-04T10:43:33.108Z,21.90
2022-09-04T10:46:22.971Z,21.90
2022-09-04T10:49:08.941Z,22.10
2022-09-04T10:52:06.527Z,22.30
2022-09-04T10:54:56.360Z,22.50
2022-09-04T10:57:50.122Z,22.70
2022-09-04T11:00:21.035Z,22.70
2022-09-04T11:03:06.543Z,22.70
2022-09-04T11:05:52.212Z,22.60
2022-09-04T11:08:27.592Z,22.50
2022-09-04T11:11:14.123Z,22.50
2022-09-04T11:13:46.058Z,22.70
2022-09-04T11:16:16.491Z,23.00
2022-09-04T11:19:00.331Z,25.30
2022-09-04T11:21:46.016Z,23.00
2022-09-04T11:24:13.368Z,23.10
2022-09-04T11:27:06.000Z,23.10
2022-09-04T11:29:41.348Z,23.20
2022-09-04T11:32:26.933Z,23.10
2022-09-04T11:34:57.223Z,23.10
2022-09-04T11:37:43.539Z,23.40
2022-09-04T11:40:19.880Z,23.00
2022-09-04T11:43:13.961Z,23.00
2022-09-04T11:45:49.280Z,22.90
2022-09-04T11:48:19.157Z,22.80
2022-09-04T11:51:06.755Z,22.70
2022-09-04T11:53:48.812Z,22.60
2022-09-04T11:56:19.032Z,22.50
2022-09-04T11:58:45.676Z,22.40
2022-09-04T12:01:35.279Z,23.90
2022-09-04T12:04:14.916Z,22.60
2022-09-04T12:07:02.303Z,22.80
2022-09-04T12:09:32.251Z,22.90
2022-09-04T12:12:22.745Z,22.90
2022-09-04T12:15:08.617Z,23.00
2022-09-04T12:17:56.621Z,23.10
2022-09-04T12:20:29.957Z,23.20
2022-09-04T12:23:15.455Z,23.20
2022-09-04T12:25:54.584Z,23.30
2022-09-04T12:28:29.419Z,23.30
2022-09-04T12:31:14.760Z,23.40
2022-09-04T12:33:47.404Z,23.50
2022-09-04T12:36:44.300Z,23.50
2022-09-04T12:39:10.959Z,23.50
2022-09-04T12:41:41.703Z,23.40
2022-09-04T12:44:18.085Z,23.60
2022-09-04T12:46:57.057Z,23.60
2022-09-04T12:49:29.938Z,23.90
2022-09-04T12:52:17.510Z,24.00
2022-09-04T12:55:05.058Z,24.10
2022-09-04T12:57:41.841Z,24.20
2022-09-04T13:00:13.036Z,24.40
2022-09-04T13:02:58.785Z,24.30
2022-09-04T13:05:34.551Z,24.40
2022-09-04T13:08:06.308Z,24.40
2022-09-04T13:10:41.327Z,24.40
2022-09-04T13:13:16.757Z,24.30
2022-09-04T13:16:07.770Z,24.30
2022-09-04T13:18:40.380Z,24.30
2022-09-04T13:21:26.020Z,26.50
2022-09-04T13:24:00.710Z,24.40
2022-09-04T13:26:46.302Z,24.50
2022-09-04T13:29:36.225Z,24.50
2022-09-04T13:32:21.708Z,24.50
2022-09-04T13:34:55.125Z,24.50
2022-09-04T13:37:29.311Z,24.40
2022-09-04T13:40:02.921Z,24.30
2022-09-04T13:42:40.134Z,26.00
2022-09-04T13:45:23.384Z,24.00
2022-09-04T13:47:55.410Z,23.90
2022-09-04T13:50:42.545Z,24.80
2022-09-04T13:53:11.183Z,23.90
2022-09-04T13:55:39.097Z,23.90
2022-09-04T13:58:10.980Z,26.00
2022-09-04T14:00:45.032Z,24.20
2022-09-04T14:03:14.334Z,24.30
2022-09-04T14:05:41.108Z,25.40
2022-09-04T14:08:13.179Z,25.30
2022-09-04T14:10:58.532Z,24.30
2022-09-04T14:13:41.840Z,24.40
2022-09-04T14:16:11.648Z,24.40
2022-09-04T14:18:49.817Z,24.50
2022-09-04T14:21:24.450Z,24.40
2022-09-04T14:23:54.145Z,24.40
2022-09-04T14:26:24.576Z,24.30
2022-09-04T14:29:09.748Z,24.10
2022-09-04T14:31:49.562Z,24.00
2022-09-04T14:34:23.121Z,24.10
2022-09-04T14:37:08.346Z,24.10
2022-09-04T14:39:48.049Z,24.10
2022-09-04T14:42:17.765Z,24.00
2022-09-04T14:44:58.114Z,24.00
2022-09-04T14:47:33.635Z,24.10
2022-09-04T14:50:04.135Z,24.20
2022-09-04T14:52:36.647Z,24.30
2022-09-04T14:55:07.060Z,24.40
2022-09-04T14:57:39.989Z,24.50
2022-09-04T15:00:14.854Z,24.50
2022-09-04T15:02:47.604Z,24.40
2022-09-04T15:05:22.519Z,24.40
2022-09-04T15:07:51.644Z,24.40
2022-09-04T15:10:37.136Z,24.40
2022-09-04T15:13:09.778Z,24.30
2022-09-04T15:15:39.266Z,24.10
2022-09-04T15:18:18.039Z,24.10
2022-09-04T15:20:53.730Z,24.10
2022-09-04T15:23:27.590Z,24.00
2022-09-04T15:26:00.361Z,24.20
2022-09-04T15:28:42.696Z,24.20
2022-09-04T15:31:17.677Z,24.20
2022-09-04T15:33:46.479Z,24.20
2022-09-04T15:36:18.402Z,24.30
2022-09-04T15:38:50.794Z,24.20
2022-09-04T15:41:35.024Z,24.10
2022-09-04T15:44:08.969Z,23.90
2022-09-04T15:46:38.745Z,23.80
2022-09-04T15:49:19.331Z,23.70
2022-09-04T15:51:46.268Z,23.70
2022-09-04T15:54:29.510Z,23.70
2022-09-04T15:57:02.986Z,23.70
2022-09-04T15:59:29.684Z,23.90
2022-09-04T16:02:13.154Z,24.80
2022-09-04T16:04:49.560Z,24.10
2022-09-04T16:07:34.398Z,24.10
2022-09-04T16:10:24.312Z,24.10
2022-09-04T16:12:59.254Z,24.10
2022-09-04T16:15:33.090Z,24.20
2022-09-04T16:18:02.427Z,24.20
2022-09-04T16:20:36.534Z,24.20
2022-09-04T16:23:08.806Z,24.20
2022-09-04T16:25:40.888Z,24.20
2022-09-04T16:28:12.990Z,24.30
2022-09-04T16:30:44.205Z,24.30
2022-09-04T16:33:28.102Z,24.30
2022-09-04T16:35:59.499Z,24.30
2022-09-04T16:38:42.206Z,25.00
2022-09-04T16:41:12.130Z,24.40
2022-09-04T16:43:39.458Z,24.30
2022-09-04T16:46:27.665Z,24.20
2022-09-04T16:49:00.831Z,24.20
2022-09-04T16:51:40.035Z,25.90
2022-09-04T16:54:11.605Z,26.50
2022-09-04T16:56:40.559Z,23.90
2022-09-04T16:59:27.571Z,23.90
2022-09-04T17:02:01.771Z,23.80
2022-09-04T17:04:30.897Z,23.70
2022-09-04T17:07:03.096Z,23.70
2022-09-04T17:09:35.480Z,23.70
2022-09-04T17:12:21.172Z,23.60
2022-09-04T17:15:01.450Z,23.50
2022-09-04T17:17:31.458Z,23.50
2022-09-04T17:20:02.061Z,24.90
2022-09-04T17:28:54.531Z,23.40
2022-09-04T17:29:03.574Z,23.60
2022-09-04T17:29:10.275Z,23.20
2022-09-04T17:31:01.468Z,23.10
2022-09-04T17:38:57.661Z,23.00
2022-09-04T17:40:39.386Z,22.90
2022-09-04T17:40:51.889Z,22.90
2022-09-04T17:42:08.733Z,22.70
2022-09-04T17:44:50.687Z,22.60
2022-09-04T17:47:27.535Z,22.50
2022-09-04T17:49:55.031Z,22.30
2022-09-04T17:52:27.090Z,23.40
2022-09-04T17:54:57.564Z,22.10
2022-09-04T17:57:36.631Z,22.30
2022-09-04T18:00:09.026Z,21.80
2022-09-04T18:02:42.530Z,21.70
2022-09-04T18:05:15.962Z,21.60
2022-09-04T18:08:08.493Z,21.50
2022-09-04T18:10:46.231Z,21.40
2022-09-04T18:13:36.271Z,21.40
2022-09-04T18:16:18.727Z,22.70
2022-09-04T18:18:52.667Z,21.00
2022-09-04T18:21:35.965Z,20.70
2022-09-04T18:24:12.500Z,20.50
2022-09-04T18:26:42.256Z,20.20
2022-09-04T18:31:49.558Z,20.10
2022-09-04T18:37:22.455Z,20.00
2022-09-04T18:37:27.098Z,20.10
2022-09-04T18:38:16.191Z,19.90
2022-09-04T18:44:00.866Z,19.70
2022-09-04T18:50:26.067Z,19.70
2022-09-04T18:50:44.806Z,21.40
2022-09-04T18:50:50.652Z,21.80
2022-09-04T18:52:17.190Z,20.50
2022-09-04T18:54:46.964Z,20.30
2022-09-04T18:57:24.497Z,19.30
2022-09-04T18:59:58.361Z,20.10
2022-09-04T19:02:54.296Z,19.30
2022-09-04T19:05:22.118Z,19.00
2022-09-04T19:07:52.933Z,20.30
2022-09-04T19:10:19.734Z,18.90
2022-09-04T19:12:49.495Z,18.70
2022-09-04T19:15:22.331Z,18.70
2022-09-04T19:18:08.134Z,18.60
2022-09-04T19:20:47.553Z,19.80
2022-09-04T19:23:19.318Z,18.40
2022-09-04T19:25:50.220Z,18.30
2022-09-04T19:28:25.375Z,18.30
2022-09-04T19:30:58.408Z,18.20
2022-09-04T19:33:39.588Z,18.20
2022-09-04T19:36:30.895Z,18.80
2022-09-04T19:45:55.932Z,18.10
2022-09-04T19:46:00.062Z,18.10
2022-09-04T19:46:04.424Z,18.00
2022-09-04T19:48:19.024Z,17.90
2022-09-04T19:53:21.577Z,18.00
2022-09-04T19:54:05.463Z,17.80
2022-09-04T19:56:56.643Z,18.90
2022-09-04T19:59:44.898Z,17.60
2022-09-04T20:02:23.136Z,17.50
2022-09-04T20:04:52.927Z,18.50
2022-09-04T20:07:23.772Z,17.30
2022-09-04T20:09:52.169Z,17.20
2022-09-04T20:12:31.422Z,18.20
2022-09-04T20:15:11.572Z,17.10
2022-09-04T20:18:04.196Z,17.10
2022-09-04T20:20:46.526Z,17.00
2022-09-04T20:23:34.932Z,16.90
2022-09-04T20:26:10.999Z,17.90
2022-09-04T20:28:41.970Z,17.20
2022-09-04T20:31:36.578Z,16.80
2022-09-04T20:34:17.357Z,16.70
2022-09-04T20:36:48.914Z,16.70
2022-09-04T20:39:19.427Z,16.70
2022-09-04T20:41:46.124Z,18.80
2022-09-04T20:44:13.693Z,16.60
2022-09-04T20:52:42.317Z,18.20
2022-09-04T20:52:52.412Z,18.50
2022-09-04T20:52:57.192Z,16.50
2022-09-04T20:55:32.196Z,16.40
2022-09-04T21:03:14.007Z,16.30
2022-09-04T21:03:20.993Z,16.30
2022-09-04T21:04:14.796Z,17.50
2022-09-04T21:06:56.955Z,16.20
2022-09-04T21:09:32.127Z,16.20
2022-09-04T21:12:12.177Z,17.70
2022-09-04T21:14:48.068Z,16.10
2022-09-04T21:17:34.252Z,16.00
2022-09-04T21:20:17.873Z,16.40
2022-09-04T21:22:44.486Z,15.70
2022-09-04T21:25:31.493Z,16.60
2022-09-04T21:28:10.379Z,15.60
2022-09-04T21:30:53.069Z,15.50
2022-09-04T21:33:27.520Z,15.50
2022-09-04T21:35:55.714Z,18.00
2022-09-04T21:38:35.952Z,17.10
2022-09-04T21:41:21.459Z,15.50
2022-09-04T21:43:58.092Z,15.50
2022-09-04T21:46:31.445Z,15.40
2022-09-04T21:49:14.557Z,16.80
2022-09-04T21:52:12.157Z,15.30
2022-09-04T21:55:29.847Z,15.30
2022-09-04T22:02:27.864Z,15.30
2022-09-04T22:02:40.622Z,17.50
2022-09-04T22:03:30.060Z,15.40
2022-09-04T22:06:04.160Z,15.30
2022-09-04T22:13:28.796Z,15.20
2022-09-04T22:13:43.094Z,15.20
2022-09-04T22:14:38.054Z,15.20
2022-09-04T22:17:17.033Z,15.20
2022-09-04T22:19:47.705Z,15.10
2022-09-04T22:22:14.434Z,15.20
2022-09-04T22:24:47.329Z,17.40
2022-09-04T22:28:07.253Z,15.10
2022-09-04T22:30:43.977Z,15.00
2022-09-04T22:33:10.629Z,15.10
2022-09-04T22:35:43.472Z,15.00
2022-09-04T22:38:19.494Z,15.10
2022-09-04T22:41:04.890Z,15.00
2022-09-04T22:43:46.904Z,15.00
2022-09-04T22:46:14.259Z,17.20
2022-09-04T22:49:12.776Z,16.40
2022-09-04T22:51:43.006Z,15.00
2022-09-04T22:54:19.287Z,15.00
2022-09-04T22:56:54.115Z,14.90
2022-09-04T22:59:43.577Z,14.80
2022-09-04T23:02:19.691Z,14.70
2022-09-04T23:04:49.523Z,14.70
2022-09-04T23:12:30.305Z,14.60
2022-09-04T23:13:58.372Z,14.60
2022-09-04T23:13:59.147Z,14.60
2022-09-04T23:16:28.080Z,14.70
2022-09-04T23:25:14.070Z,14.70
2022-09-04T23:26:43.218Z,14.80
2022-09-04T23:26:46.995Z,14.70
2022-09-04T23:27:49.947Z,14.80
2022-09-04T23:30:25.094Z,15.10
2022-09-04T23:33:12.453Z,14.80
2022-09-04T23:35:39.152Z,14.80
2022-09-04T23:38:20.009Z,16.70
2022-09-04T23:40:50.832Z,14.60
2022-09-04T23:43:45.520Z,14.50
2022-09-04T23:46:23.740Z,14.50
2022-09-04T23:49:09.167Z,14.40
2022-09-04T23:51:42.121Z,14.40
2022-09-04T23:54:25.384Z,14.40
2022-09-04T23:56:59.891Z,14.40
2022-09-04T23:59:37.805Z,14.40
